createdAt,value
2019-02-08T00:01:40.452Z,14.87
2019-02-08T00:04:08.513Z,12.10
2019-02-08T00:06:36.567Z,12.63
2019-02-08T00:09:07.396Z,11.37
2019-02-08T00:11:35.332Z,14.50
2019-02-08T00:14:04.218Z,9.43
2019-02-08T00:16:32.209Z,16.73
2019-02-08T00:19:00.299Z,14.47
2019-02-08T00:21:28.829Z,13.73
2019-02-08T00:23:56.907Z,18.40
2019-02-08T00:26:25.025Z,14.33
2019-02-08T00:28:53.023Z,11.10
2019-02-08T00:31:21.027Z,14.23
2019-02-08T00:33:49.090Z,13.63
2019-02-08T00:36:17.159Z,18.37
2019-02-08T00:38:45.437Z,12.80
2019-02-08T00:41:13.712Z,10.93
2019-02-08T00:43:41.758Z,14.40
2019-02-08T00:46:09.727Z,13.20
2019-02-08T00:48:37.722Z,14.53
2019-02-08T00:51:05.711Z,11.30
2019-02-08T00:53:33.813Z,11.40
2019-02-08T00:56:01.836Z,12.00
2019-02-08T00:58:29.720Z,9.93
2019-02-08T01:00:58.767Z,12.10
2019-02-08T01:03:26.831Z,11.97
2019-02-08T01:05:54.774Z,10.57
2019-02-08T01:08:23.430Z,11.00
2019-02-08T01:10:51.515Z,8.07
2019-02-08T01:13:19.444Z,10.40
2019-02-08T01:15:47.457Z,9.13
2019-02-08T01:18:15.505Z,10.60
2019-02-08T01:20:43.573Z,12.17
2019-02-08T01:23:11.520Z,10.57
2019-02-08T01:25:40.115Z,7.90
2019-02-08T01:28:11.140Z,10.23
2019-02-08T01:30:39.109Z,11.70
2019-02-08T01:33:07.036Z,10.83
2019-02-08T01:35:35.048Z,14.83
2019-02-08T01:38:02.940Z,11.47
2019-02-08T01:40:32.296Z,8.03
2019-02-08T01:43:00.679Z,10.43
2019-02-08T01:45:29.507Z,10.77
2019-02-08T01:47:57.495Z,13.27
2019-02-08T01:50:26.068Z,9.90
2019-02-08T01:52:55.631Z,11.03
2019-02-08T01:55:23.773Z,12.60
2019-02-08T01:57:52.283Z,11.93
2019-02-08T02:00:24.268Z,8.20
2019-02-08T02:02:52.344Z,8.43
2019-02-08T02:05:20.514Z,14.23
2019-02-08T02:07:48.490Z,9.33
2019-02-08T02:10:20.973Z,11.03
2019-02-08T02:12:48.976Z,14.60
2019-02-08T02:15:17.102Z,13.53
2019-02-08T02:17:45.018Z,14.77
2019-02-08T02:20:14.105Z,17.33
2019-02-08T02:22:42.192Z,11.07
2019-02-08T02:25:10.235Z,13.10
2019-02-08T02:27:38.149Z,16.33
2019-02-08T02:30:06.970Z,16.70
2019-02-08T02:32:34.865Z,13.57
2019-02-08T02:35:02.850Z,11.57
2019-02-08T02:37:30.858Z,16.77
2019-02-08T02:39:58.846Z,11.50
2019-02-08T02:42:26.808Z,20.13
2019-02-08T02:44:54.784Z,16.23
2019-02-08T02:47:22.749Z,20.27
2019-02-08T02:49:50.727Z,13.27
2019-02-08T02:52:18.713Z,22.93
2019-02-08T02:54:46.718Z,16.23
2019-02-08T02:57:14.670Z,14.07
2019-02-08T02:59:42.638Z,21.27
2019-02-08T03:02:10.646Z,18.00
2019-02-08T03:04:38.629Z,16.07
2019-02-08T03:07:07.864Z,20.93
2019-02-08T03:09:35.772Z,24.23
2019-02-08T03:12:03.679Z,17.47
2019-02-08T03:14:31.637Z,20.10
2019-02-08T03:16:59.603Z,18.00
2019-02-08T03:19:27.510Z,20.40
2019-02-08T03:21:55.434Z,19.60
2019-02-08T03:24:23.816Z,20.13
2019-02-08T03:26:54.915Z,21.63
2019-02-08T03:29:22.957Z,20.13
2019-02-08T03:31:53.035Z,21.43
2019-02-08T03:34:20.983Z,19.63
2019-02-08T03:36:49.023Z,21.10
2019-02-08T03:39:17.027Z,19.83
2019-02-08T03:41:46.942Z,21.43
2019-02-08T03:44:14.970Z,15.17
2019-02-08T03:46:42.929Z,15.43
2019-02-08T03:49:10.937Z,18.07
2019-02-08T03:51:38.887Z,19.07
2019-02-08T03:54:06.864Z,19.97
2019-02-08T03:56:34.797Z,15.40
2019-02-08T03:59:02.778Z,20.50
2019-02-08T04:01:30.771Z,21.27
2019-02-08T04:04:11.539Z,17.37
2019-02-08T04:06:39.920Z,18.13
2019-02-08T04:09:08.614Z,17.30
2019-02-08T04:11:38.967Z,18.17
2019-02-08T04:14:06.927Z,18.73
2019-02-08T04:16:34.949Z,21.77
2019-02-08T04:19:03.049Z,19.90
2019-02-08T04:21:33.281Z,16.87
2019-02-08T04:24:01.312Z,19.67
2019-02-08T04:26:35.227Z,17.73
2019-02-08T04:29:03.430Z,12.60
2019-02-08T04:31:31.389Z,22.73
2019-02-08T04:33:59.320Z,22.10
2019-02-08T04:36:27.351Z,20.23
2019-02-08T04:38:57.872Z,22.90
2019-02-08T04:41:25.971Z,20.10
2019-02-08T04:43:55.410Z,16.27
2019-02-08T04:46:23.361Z,18.77
2019-02-08T04:48:51.338Z,16.80
2019-02-08T04:51:19.447Z,21.83
2019-02-08T04:53:47.379Z,19.20
2019-02-08T04:56:15.417Z,25.03
2019-02-08T04:58:43.402Z,19.60
2019-02-08T05:01:11.812Z,20.53
2019-02-08T05:03:41.231Z,19.57
2019-02-08T05:06:09.230Z,13.03
2019-02-08T05:08:37.301Z,19.77
2019-02-08T05:11:06.725Z,17.07
2019-02-08T05:13:34.673Z,16.30
2019-02-08T05:16:02.770Z,21.00
2019-02-08T05:18:30.816Z,14.90
2019-02-08T05:20:58.849Z,16.40
2019-02-08T05:23:26.986Z,10.43
2019-02-08T05:25:55.090Z,12.33
2019-02-08T05:28:23.169Z,13.93
2019-02-08T05:30:51.109Z,11.67
2019-02-08T05:33:19.087Z,15.73
2019-02-08T05:35:47.145Z,14.07
2019-02-08T05:38:15.432Z,10.27
2019-02-08T05:40:43.467Z,7.50
2019-02-08T05:43:12.107Z,14.90
2019-02-08T05:45:40.104Z,14.57
2019-02-08T05:48:08.279Z,12.53
2019-02-08T05:50:36.603Z,15.60
2019-02-08T05:53:05.694Z,12.30
2019-02-08T05:55:33.909Z,13.53
2019-02-08T05:58:01.850Z,14.90
2019-02-08T06:00:57.249Z,14.63
2019-02-08T06:03:25.275Z,11.60
2019-02-08T06:05:53.242Z,16.87
2019-02-08T06:08:21.384Z,12.10
2019-02-08T06:10:49.317Z,20.00
2019-02-08T06:13:17.307Z,12.07
2019-02-08T06:15:46.645Z,11.67
2019-02-08T06:18:14.574Z,16.30
2019-02-08T06:20:42.647Z,11.37
2019-02-08T06:23:10.614Z,9.70
2019-02-08T06:25:38.654Z,12.90
2019-02-08T06:28:07.211Z,10.90
2019-02-08T06:30:35.324Z,11.33
2019-02-08T06:33:03.250Z,12.30
2019-02-08T06:35:31.256Z,13.50
2019-02-08T06:37:59.316Z,13.80
2019-02-08T06:40:27.913Z,12.23
2019-02-08T06:42:55.893Z,12.70
2019-02-08T06:45:25.493Z,12.23
2019-02-08T06:47:53.547Z,13.27
2019-02-08T06:50:22.150Z,11.70
2019-02-08T06:52:50.063Z,11.77
2019-02-08T06:55:18.153Z,9.80
2019-02-08T06:58:17.554Z,16.27
2019-02-08T07:01:19.972Z,14.07
2019-02-08T07:04:13.862Z,11.83
2019-02-08T07:06:59.481Z,11.27
2019-02-08T07:09:48.527Z,11.87
2019-02-08T07:12:30.913Z,12.60
2019-02-08T07:15:17.925Z,15.50
2019-02-08T07:18:03.726Z,12.37
2019-02-08T07:20:50.749Z,19.00
2019-02-08T07:23:49.844Z,11.90
2019-02-08T07:26:27.029Z,13.93
2019-02-08T07:29:17.836Z,14.00
2019-02-08T07:32:01.774Z,17.43
2019-02-08T07:34:49.017Z,18.73
2019-02-08T07:37:45.055Z,15.53
2019-02-08T07:40:34.880Z,20.80
2019-02-08T07:43:29.658Z,21.43
2019-02-08T07:46:09.415Z,20.43
2019-02-08T07:49:06.767Z,18.93
2019-02-08T07:51:58.092Z,18.33
2019-02-08T07:54:43.784Z,15.73
2019-02-08T07:57:30.943Z,26.83
2019-02-08T08:00:26.157Z,22.47
2019-02-08T08:03:29.829Z,24.87
2019-02-08T08:06:24.222Z,19.83
2019-02-08T08:09:02.389Z,21.40
2019-02-08T08:11:44.859Z,19.40
2019-02-08T08:14:41.029Z,20.37
2019-02-08T08:17:40.617Z,20.33
2019-02-08T08:20:31.857Z,22.13
2019-02-08T08:23:34.347Z,18.53
2019-02-08T08:26:20.115Z,21.30
2019-02-08T08:29:05.793Z,24.40
2019-02-08T08:31:59.691Z,26.47
2019-02-08T08:34:52.791Z,22.47
2019-02-08T08:37:29.348Z,22.27
2019-02-08T08:40:22.254Z,19.80
2019-02-08T08:43:12.183Z,19.83
2019-02-08T08:45:45.956Z,16.07
2019-02-08T08:48:31.714Z,21.10
2019-02-08T08:51:18.916Z,23.60
2019-02-08T08:54:05.943Z,15.60
2019-02-08T08:56:44.250Z,21.13
2019-02-08T08:59:20.648Z,22.30
2019-02-08T09:02:07.733Z,14.83
2019-02-08T09:04:59.614Z,22.13
2019-02-08T09:07:34.617Z,19.87
2019-02-08T09:10:13.198Z,21.80
2019-02-08T09:13:06.207Z,19.90
2019-02-08T09:15:59.288Z,18.47
2019-02-08T09:18:45.295Z,18.10
2019-02-08T09:21:39.745Z,19.43
2019-02-08T09:24:20.399Z,15.30
2019-02-08T09:27:07.413Z,18.20
2019-02-08T09:30:12.963Z,13.20
2019-02-08T09:32:57.193Z,18.90
2019-02-08T09:35:38.687Z,17.47
2019-02-08T09:38:24.595Z,20.20
2019-02-08T09:41:18.468Z,17.63
2019-02-08T09:44:01.628Z,23.00
2019-02-08T09:46:42.119Z,19.47
2019-02-08T09:49:29.015Z,18.93
2019-02-08T09:52:23.351Z,15.77
2019-02-08T09:55:21.746Z,19.27
2019-02-08T09:58:14.570Z,18.27
2019-02-08T10:01:10.201Z,14.77
2019-02-08T10:03:48.271Z,17.50
2019-02-08T10:06:44.696Z,15.27
2019-02-08T10:09:37.633Z,16.73
2019-02-08T10:12:30.806Z,20.97
2019-02-08T10:15:33.196Z,19.60
2019-02-08T10:18:20.275Z,16.90
2019-02-08T10:20:57.666Z,16.60
2019-02-08T10:23:43.470Z,14.33
2019-02-08T10:26:36.496Z,16.47
2019-02-08T10:29:22.388Z,19.70
2019-02-08T10:32:24.512Z,19.40
2019-02-08T10:35:11.690Z,17.63
2019-02-08T10:38:13.864Z,20.47
2019-02-08T10:41:07.047Z,16.57
2019-02-08T10:43:53.156Z,16.67
2019-02-08T10:46:38.841Z,15.07
2019-02-08T10:49:22.926Z,12.37
2019-02-08T10:51:59.934Z,13.20
2019-02-08T10:54:46.290Z,18.07
2019-02-08T10:57:32.082Z,20.00
2019-02-08T11:00:19.946Z,16.00
2019-02-08T11:03:06.064Z,16.50
2019-02-08T11:06:05.244Z,16.37
2019-02-08T11:09:01.324Z,14.83
2019-02-08T11:12:05.185Z,13.23
2019-02-08T11:14:52.362Z,19.87
2019-02-08T11:17:48.479Z,14.97
2019-02-08T11:20:16.451Z,14.80
2019-02-08T11:22:44.433Z,12.90
2019-02-08T11:25:13.019Z,19.10
2019-02-08T11:27:41.017Z,14.67
2019-02-08T11:30:10.589Z,17.57
2019-02-08T11:32:43.359Z,14.80
2019-02-08T11:35:09.160Z,11.33
2019-02-08T11:37:37.228Z,14.33
2019-02-08T11:40:06.633Z,14.50
2019-02-08T11:42:34.661Z,16.63
2019-02-08T11:45:02.688Z,9.90
2019-02-08T11:47:30.812Z,12.33
2019-02-08T11:49:59.080Z,14.13
2019-02-08T11:52:27.126Z,16.03
2019-02-08T11:54:55.129Z,11.43
2019-02-08T11:57:23.350Z,12.73
2019-02-08T11:59:51.313Z,11.27
2019-02-08T12:02:19.387Z,13.33
2019-02-08T12:04:50.489Z,10.67
2019-02-08T12:07:18.502Z,12.80
2019-02-08T12:09:46.748Z,12.17
2019-02-08T12:12:14.733Z,9.47
2019-02-08T12:14:42.784Z,13.37
2019-02-08T12:17:10.877Z,9.47
2019-02-08T12:19:39.015Z,10.43
2019-02-08T12:22:07.355Z,10.07
2019-02-08T12:24:35.341Z,12.10
2019-02-08T12:27:03.391Z,7.50
2019-02-08T12:29:31.394Z,8.30
2019-02-08T12:31:59.364Z,7.97
2019-02-08T12:34:27.497Z,11.70
2019-02-08T12:36:55.393Z,8.70
2019-02-08T12:39:24.421Z,9.67
2019-02-08T12:41:55.134Z,8.93
2019-02-08T12:44:23.062Z,6.03
2019-02-08T12:46:51.084Z,10.53
2019-02-08T12:49:19.083Z,5.30
2019-02-08T12:51:47.151Z,8.77
2019-02-08T12:54:15.155Z,7.47
2019-02-08T12:56:45.706Z,6.63
2019-02-08T12:59:12.811Z,9.53
2019-02-08T13:01:40.740Z,5.27
2019-02-08T13:04:08.864Z,8.37
2019-02-08T13:06:36.950Z,7.97
2019-02-08T13:09:08.540Z,5.90
2019-02-08T13:11:36.504Z,9.97
2019-02-08T13:14:04.599Z,9.67
2019-02-08T13:16:32.711Z,9.70
2019-02-08T13:19:00.658Z,10.03
2019-02-08T13:21:28.563Z,6.70
2019-02-08T13:23:56.556Z,6.70
2019-02-08T13:26:24.488Z,7.47
2019-02-08T13:28:53.867Z,7.13
2019-02-08T13:31:21.894Z,6.63
2019-02-08T13:33:49.902Z,8.07
2019-02-08T13:36:17.913Z,6.83
2019-02-08T13:38:46.134Z,5.63
2019-02-08T13:41:14.142Z,7.63
2019-02-08T13:43:42.122Z,8.13
2019-02-08T13:46:10.207Z,6.50
2019-02-08T13:48:38.118Z,5.30
2019-02-08T13:51:06.217Z,8.57
2019-02-08T13:53:34.240Z,9.70
2019-02-08T13:56:02.254Z,5.87
2019-02-08T13:58:31.203Z,7.73
2019-02-08T14:00:59.298Z,6.80
2019-02-08T14:03:27.621Z,5.53
2019-02-08T14:05:55.794Z,10.13
2019-02-08T14:08:23.978Z,8.10
2019-02-08T14:10:51.971Z,4.93
2019-02-08T14:13:19.970Z,8.37
2019-02-08T14:15:47.916Z,7.43
2019-02-08T14:18:16.112Z,6.57
2019-02-08T14:20:44.247Z,9.03
2019-02-08T14:23:12.289Z,4.60
2019-02-08T14:25:40.307Z,8.17
2019-02-08T14:28:08.329Z,7.47
2019-02-08T14:30:37.961Z,9.73
2019-02-08T14:33:06.322Z,7.97
2019-02-08T14:35:34.433Z,5.63
2019-02-08T14:38:03.841Z,6.10
2019-02-08T14:40:31.883Z,4.37
2019-02-08T14:42:59.814Z,6.17
2019-02-08T14:45:27.860Z,7.53
2019-02-08T14:47:55.966Z,7.47
2019-02-08T14:50:24.544Z,4.47
2019-02-08T14:52:52.707Z,8.33
2019-02-08T14:55:20.808Z,7.33
2019-02-08T14:57:49.144Z,7.07
2019-02-08T15:00:18.119Z,6.40
2019-02-08T15:02:46.483Z,7.23
2019-02-08T15:05:15.751Z,6.17
2019-02-08T15:07:43.897Z,9.00
2019-02-08T15:10:13.697Z,6.70
2019-02-08T15:12:45.817Z,4.77
2019-02-08T15:15:13.835Z,8.30
2019-02-08T15:17:41.763Z,7.70
2019-02-08T15:20:12.568Z,7.30
2019-02-08T15:22:40.586Z,8.50
2019-02-08T15:25:08.897Z,8.57
2019-02-08T15:27:36.826Z,7.30
2019-02-08T15:30:06.718Z,5.57
2019-02-08T15:32:34.720Z,6.13
2019-02-08T15:35:02.742Z,5.27
2019-02-08T15:37:30.854Z,6.60
2019-02-08T15:39:58.882Z,5.90
2019-02-08T15:42:26.861Z,5.43
2019-02-08T15:44:54.994Z,9.40
2019-02-08T15:47:22.980Z,5.50
2019-02-08T15:49:51.020Z,6.70
2019-02-08T15:52:19.159Z,5.63
2019-02-08T15:54:47.175Z,12.40
2019-02-08T15:57:15.109Z,10.63
2019-02-08T15:59:43.061Z,2.27
2019-02-08T16:02:12.022Z,5.17
2019-02-08T16:04:40.000Z,5.20
2019-02-08T16:07:07.970Z,3.60
2019-02-08T16:09:35.889Z,6.13
2019-02-08T16:12:04.221Z,5.33
2019-02-08T16:14:32.455Z,4.00
2019-02-08T16:17:00.715Z,4.77
2019-02-08T16:19:28.690Z,5.13
2019-02-08T16:21:56.801Z,3.77
2019-02-08T16:24:27.433Z,4.53
2019-02-08T16:26:55.502Z,4.53
2019-02-08T16:29:23.903Z,4.40
2019-02-08T16:31:52.123Z,5.07
2019-02-08T16:34:20.051Z,6.47
2019-02-08T16:36:48.193Z,4.23
2019-02-08T16:39:16.143Z,4.03
2019-02-08T16:41:44.150Z,7.97
2019-02-08T16:44:12.318Z,4.40
2019-02-08T16:46:40.388Z,4.13
2019-02-08T16:49:08.361Z,7.90
2019-02-08T16:51:36.277Z,5.83
2019-02-08T16:54:04.275Z,5.60
2019-02-08T16:56:32.357Z,4.27
2019-02-08T16:59:00.270Z,2.53
2019-02-08T17:01:28.259Z,6.00
2019-02-08T17:03:56.387Z,4.30
2019-02-08T17:06:24.364Z,4.77
2019-02-08T17:08:52.254Z,3.57
2019-02-08T17:11:20.267Z,4.87
2019-02-08T17:13:48.346Z,4.47
2019-02-08T17:16:16.370Z,4.23
2019-02-08T17:18:44.348Z,5.53
2019-02-08T17:21:13.315Z,3.43
2019-02-08T17:23:43.174Z,6.13
2019-02-08T17:26:11.311Z,6.40
2019-02-08T17:28:39.374Z,6.60
2019-02-08T17:31:07.352Z,10.87
2019-02-08T17:33:35.360Z,4.57
2019-02-08T17:36:03.359Z,5.87
2019-02-08T17:38:31.283Z,6.07
2019-02-08T17:40:59.291Z,6.20
2019-02-08T17:43:27.584Z,6.30
2019-02-08T17:45:55.514Z,5.83
2019-02-08T17:48:26.291Z,6.83
2019-02-08T17:50:54.232Z,11.93
2019-02-08T17:53:22.211Z,3.80
2019-02-08T17:55:50.204Z,4.87
2019-02-08T17:58:18.180Z,4.53
2019-02-08T18:00:48.355Z,7.50
2019-02-08T18:03:16.518Z,10.80
2019-02-08T18:05:44.467Z,5.57
2019-02-08T18:08:12.617Z,10.30
2019-02-08T18:10:40.951Z,5.50
2019-02-08T18:13:08.921Z,5.93
2019-02-08T18:15:36.833Z,5.30
2019-02-08T18:18:05.142Z,7.43
2019-02-08T18:20:34.285Z,8.77
2019-02-08T18:23:02.272Z,9.00
2019-02-08T18:25:30.697Z,5.73
2019-02-08T18:27:58.653Z,7.10
2019-02-08T18:30:26.958Z,8.87
2019-02-08T18:32:54.928Z,6.93
2019-02-08T18:35:22.966Z,6.23
2019-02-08T18:37:50.876Z,6.50
2019-02-08T18:40:19.050Z,6.63
2019-02-08T18:42:47.092Z,4.83
2019-02-08T18:45:16.388Z,5.13
2019-02-08T18:47:44.463Z,5.20
2019-02-08T18:50:14.745Z,7.50
2019-02-08T18:52:42.761Z,9.03
2019-02-08T18:55:10.715Z,8.33
2019-02-08T18:57:38.666Z,5.97
2019-02-08T19:00:08.738Z,11.23
2019-02-08T19:02:36.702Z,6.07
2019-02-08T19:05:05.385Z,8.77
2019-02-08T19:07:33.498Z,12.80
2019-02-08T19:10:01.633Z,10.30
2019-02-08T19:12:29.628Z,7.10
2019-02-08T19:14:57.610Z,6.77
2019-02-08T19:17:25.671Z,5.57
2019-02-08T19:19:53.713Z,9.00
2019-02-08T19:22:21.815Z,6.87
2019-02-08T19:24:49.893Z,6.57
2019-02-08T19:27:17.944Z,10.47
2019-02-08T19:29:45.927Z,6.20
2019-02-08T19:32:14.010Z,11.33
2019-02-08T19:34:45.113Z,9.73
2019-02-08T19:37:13.153Z,10.00
2019-02-08T19:39:41.173Z,4.57
2019-02-08T19:42:09.182Z,6.47
2019-02-08T19:44:37.163Z,5.10
2019-02-08T19:47:05.295Z,7.40
2019-02-08T19:49:33.572Z,5.50
2019-02-08T19:52:01.495Z,7.27
2019-02-08T19:54:29.436Z,4.03
2019-02-08T19:56:57.404Z,4.97
2019-02-08T19:59:25.327Z,3.20
2019-02-08T20:01:53.338Z,7.07
2019-02-08T20:04:21.314Z,4.70
2019-02-08T20:06:49.381Z,4.27
2019-02-08T20:09:17.579Z,9.87
2019-02-08T20:11:45.709Z,6.17
2019-02-08T20:14:13.669Z,6.13
2019-02-08T20:16:41.676Z,5.60
2019-02-08T20:19:09.695Z,7.77
2019-02-08T20:21:38.070Z,7.37
2019-02-08T20:24:06.104Z,6.90
2019-02-08T20:26:34.458Z,10.93
2019-02-08T20:29:03.562Z,6.90
2019-02-08T20:31:32.244Z,7.77
2019-02-08T20:34:00.206Z,6.07
2019-02-08T20:36:28.355Z,5.80
2019-02-08T20:38:56.561Z,4.13
2019-02-08T20:41:24.623Z,5.63
2019-02-08T20:43:52.557Z,7.20
2019-02-08T20:46:20.564Z,3.83
2019-02-08T20:48:50.124Z,5.73
2019-02-08T20:51:18.113Z,3.60
2019-02-08T20:53:46.092Z,5.97
2019-02-08T20:56:14.218Z,6.03
2019-02-08T20:58:49.888Z,7.73
2019-02-08T21:01:12.034Z,6.63
2019-02-08T21:03:40.112Z,6.40
2019-02-08T21:06:11.015Z,6.57
2019-02-08T21:08:38.921Z,8.30
2019-02-08T21:11:06.904Z,6.27
2019-02-08T21:13:34.935Z,6.93
2019-02-08T21:16:03.284Z,6.10
2019-02-08T21:18:31.392Z,5.00
2019-02-08T21:20:59.454Z,5.97
2019-02-08T21:23:30.414Z,7.53
2019-02-08T21:25:58.415Z,7.47
2019-02-08T21:28:26.411Z,4.10
2019-02-08T21:30:56.054Z,4.27
2019-02-08T21:33:24.178Z,7.80
2019-02-08T21:35:52.278Z,5.53
2019-02-08T21:38:20.441Z,5.93
2019-02-08T21:40:51.103Z,6.67
2019-02-08T21:43:19.042Z,7.07
2019-02-08T21:45:47.018Z,5.13
2019-02-08T21:48:15.016Z,5.57
2019-02-08T21:50:43.105Z,9.43
2019-02-08T21:53:11.119Z,8.33
2019-02-08T21:55:39.121Z,6.80
2019-02-08T21:58:07.349Z,4.30
2019-02-08T22:00:36.109Z,6.13
2019-02-08T22:03:04.795Z,6.40
2019-02-08T22:05:55.025Z,4.97
2019-02-08T22:08:23.007Z,5.20
2019-02-08T22:10:50.945Z,6.23
2019-02-08T22:13:18.834Z,5.13
2019-02-08T22:15:46.949Z,6.30
2019-02-08T22:18:14.968Z,5.43
2019-02-08T22:20:43.405Z,6.50
2019-02-08T22:23:12.117Z,6.57
2019-02-08T22:25:40.520Z,6.13
2019-02-08T22:28:08.609Z,6.40
2019-02-08T22:30:36.905Z,4.97
2019-02-08T22:33:07.152Z,4.63
2019-02-08T22:35:35.340Z,6.70
2019-02-08T22:38:03.496Z,4.97
2019-02-08T22:40:31.450Z,5.17
2019-02-08T22:43:00.007Z,6.47
2019-02-08T22:45:34.792Z,9.10
2019-02-08T22:48:02.745Z,6.43
2019-02-08T22:50:30.818Z,7.70
2019-02-08T22:52:58.918Z,4.30
2019-02-08T22:55:27.707Z,9.47
2019-02-08T22:57:55.844Z,4.57
2019-02-08T23:00:42.424Z,8.60
2019-02-08T23:03:10.621Z,4.70
2019-02-08T23:05:45.252Z,4.50
2019-02-08T23:08:08.879Z,5.07
2019-02-08T23:10:36.948Z,4.57
2019-02-08T23:13:06.277Z,7.97
2019-02-08T23:15:34.224Z,7.87
2019-02-08T23:18:02.244Z,5.77
2019-02-08T23:20:30.189Z,5.43
2019-02-08T23:22:58.336Z,5.37
2019-02-08T23:25:27.557Z,5.63
2019-02-08T23:27:55.484Z,8.17
2019-02-08T23:30:23.470Z,4.33
2019-02-08T23:32:51.406Z,5.60
2019-02-08T23:35:20.900Z,7.87
2019-02-08T23:37:48.831Z,6.23
2019-02-08T23:40:16.992Z,6.50
2019-02-08T23:42:45.032Z,7.20
2019-02-08T23:45:13.109Z,13.07
2019-02-08T23:47:41.019Z,7.63
2019-02-08T23:50:09.061Z,5.30
2019-02-08T23:52:37.602Z,8.50
2019-02-08T23:55:05.688Z,8.77
2019-02-08T23:57:33.684Z,9.43
